createdAt,value
2018-04-18T00:01:38.386Z,7.63
2018-04-18T00:04:06.853Z,8.30
2018-04-18T00:06:35.557Z,7.80
2018-04-18T00:09:03.917Z,8.10
2018-04-18T00:11:32.941Z,8.20
2018-04-18T00:14:02.164Z,8.07
2018-04-18T00:16:30.622Z,8.60
2018-04-18T00:18:59.174Z,8.43
2018-04-18T00:21:27.539Z,8.83
2018-04-18T00:23:56.128Z,8.70
2018-04-18T00:26:24.630Z,7.70
2018-04-18T00:28:53.041Z,9.20
2018-04-18T00:31:21.507Z,9.10
2018-04-18T00:33:49.933Z,9.27
2018-04-18T00:36:18.391Z,9.00
2018-04-18T00:38:46.993Z,9.20
2018-04-18T00:41:15.434Z,8.77
2018-04-18T00:43:43.833Z,9.13
2018-04-18T00:46:12.220Z,9.60
2018-04-18T00:48:40.626Z,10.23
2018-04-18T00:51:09.129Z,9.00
2018-04-18T00:53:37.618Z,8.40
2018-04-18T00:56:06.039Z,9.10
2018-04-18T00:58:34.426Z,8.93
2018-04-18T01:01:03.326Z,8.10
2018-04-18T01:03:32.068Z,8.43
2018-04-18T01:06:00.503Z,10.00
2018-04-18T01:08:29.413Z,8.50
2018-04-18T01:10:59.093Z,9.97
2018-04-18T01:13:27.627Z,9.47
2018-04-18T01:15:56.009Z,8.80
2018-04-18T01:18:24.413Z,9.60
2018-04-18T01:20:52.817Z,9.20
2018-04-18T01:23:21.222Z,10.17
2018-04-18T01:25:49.690Z,9.50
2018-04-18T01:28:18.073Z,9.73
2018-04-18T01:30:46.478Z,9.93
2018-04-18T01:33:14.877Z,9.57
2018-04-18T01:35:43.274Z,9.93
2018-04-18T01:38:11.823Z,10.63
2018-04-18T01:40:40.234Z,10.73
2018-04-18T01:43:08.630Z,10.47
2018-04-18T01:45:36.999Z,10.47
2018-04-18T01:48:05.528Z,10.30
2018-04-18T01:50:33.895Z,10.03
2018-04-18T01:53:02.263Z,10.80
2018-04-18T01:55:30.618Z,8.80
2018-04-18T01:57:59.003Z,10.27
2018-04-18T02:00:27.370Z,9.70
2018-04-18T02:02:55.730Z,9.77
2018-04-18T02:05:24.166Z,10.63
2018-04-18T02:07:52.531Z,10.70
2018-04-18T02:10:20.941Z,10.47
2018-04-18T02:12:49.395Z,11.40
2018-04-18T02:15:17.752Z,9.40
2018-04-18T02:17:46.128Z,10.73
2018-04-18T02:20:14.613Z,9.90
2018-04-18T02:22:43.060Z,9.60
2018-04-18T02:25:11.425Z,10.20
2018-04-18T02:27:39.897Z,10.30
2018-04-18T02:30:09.235Z,10.03
2018-04-18T02:32:37.573Z,9.80
2018-04-18T02:35:06.045Z,10.40
2018-04-18T02:37:34.421Z,10.73
2018-04-18T02:40:02.830Z,10.50
2018-04-18T02:42:31.185Z,10.93
2018-04-18T02:44:59.559Z,10.80
2018-04-18T02:47:28.040Z,11.37
2018-04-18T02:49:56.415Z,11.23
2018-04-18T02:52:24.810Z,10.30
2018-04-18T02:54:53.210Z,11.90
2018-04-18T02:57:21.711Z,10.23
2018-04-18T02:59:50.114Z,11.20
2018-04-18T03:02:18.519Z,11.73
2018-04-18T03:04:46.918Z,12.00
2018-04-18T03:07:15.331Z,12.07
2018-04-18T03:09:43.739Z,11.00
2018-04-18T03:12:12.139Z,10.17
2018-04-18T03:14:40.643Z,11.33
2018-04-18T03:17:09.112Z,10.40
2018-04-18T03:19:37.509Z,10.83
2018-04-18T03:22:05.895Z,11.20
2018-04-18T03:24:34.305Z,10.70
2018-04-18T03:27:02.712Z,10.93
2018-04-18T03:29:31.095Z,10.30
2018-04-18T03:31:59.485Z,11.30
2018-04-18T03:34:27.891Z,11.60
2018-04-18T03:36:56.349Z,10.90
2018-04-18T03:39:24.744Z,10.67
2018-04-18T03:41:53.137Z,11.10
2018-04-18T03:44:21.589Z,11.60
2018-04-18T03:46:50.898Z,12.40
2018-04-18T03:49:19.286Z,11.07
2018-04-18T03:51:47.785Z,12.57
2018-04-18T03:54:16.226Z,10.53
2018-04-18T03:56:44.769Z,11.03
2018-04-18T03:59:13.173Z,10.30
2018-04-18T04:01:41.546Z,11.17
2018-04-18T04:04:09.949Z,10.53
2018-04-18T04:06:38.425Z,10.03
2018-04-18T04:09:06.866Z,10.93
2018-04-18T04:11:35.223Z,11.80
2018-04-18T04:14:03.607Z,10.87
2018-04-18T04:16:43.679Z,12.00
2018-04-18T04:19:23.759Z,11.50
2018-04-18T04:22:03.785Z,11.63
2018-04-18T04:24:40.777Z,11.83
2018-04-18T04:27:09.400Z,11.27
2018-04-18T04:29:37.859Z,12.07
2018-04-18T04:32:06.346Z,11.00
2018-04-18T04:34:34.776Z,10.43
2018-04-18T04:37:03.300Z,10.60
2018-04-18T04:39:31.733Z,11.70
2018-04-18T04:42:00.438Z,10.13
2018-04-18T04:44:29.222Z,11.23
2018-04-18T04:46:58.055Z,12.57
2018-04-18T04:49:26.789Z,9.83
2018-04-18T04:51:55.408Z,8.53
2018-04-18T04:54:32.434Z,9.77
2018-04-18T04:57:01.051Z,9.50
2018-04-18T04:59:29.793Z,11.93
2018-04-18T05:01:58.487Z,10.27
2018-04-18T05:04:27.293Z,10.30
2018-04-18T05:06:56.122Z,9.70
2018-04-18T05:09:24.934Z,9.70
2018-04-18T05:11:53.383Z,11.20
2018-04-18T05:14:21.811Z,11.00
2018-04-18T05:16:50.202Z,9.93
2018-04-18T05:19:18.708Z,11.43
2018-04-18T05:21:47.158Z,10.93
2018-04-18T05:24:15.561Z,9.33
2018-04-18T05:26:44.055Z,9.23
2018-04-18T05:29:12.473Z,10.37
2018-04-18T05:31:40.869Z,10.43
2018-04-18T05:34:09.348Z,9.90
2018-04-18T05:36:38.177Z,10.90
2018-04-18T05:39:06.996Z,9.80
2018-04-18T05:41:35.770Z,9.20
2018-04-18T05:44:04.547Z,10.13
2018-04-18T05:46:33.172Z,10.93
2018-04-18T05:49:01.911Z,9.67
2018-04-18T05:51:30.585Z,9.70
2018-04-18T05:53:59.116Z,11.60
2018-04-18T05:56:27.814Z,10.40
2018-04-18T05:58:56.531Z,10.43
2018-04-18T06:01:25.028Z,9.87
2018-04-18T06:03:53.720Z,9.43
2018-04-18T06:06:22.268Z,10.70
2018-04-18T06:08:50.677Z,10.30
2018-04-18T06:11:19.391Z,10.00
2018-04-18T06:13:48.472Z,8.40
2018-04-18T06:16:17.338Z,8.30
2018-04-18T06:18:46.120Z,8.10
2018-04-18T06:21:14.830Z,6.90
2018-04-18T06:23:44.230Z,6.70
2018-04-18T06:26:13.057Z,6.00
2018-04-18T06:28:42.336Z,6.50
2018-04-18T06:31:11.496Z,5.80
2018-04-18T06:33:40.070Z,6.13
2018-04-18T06:36:09.171Z,6.13
2018-04-18T06:38:37.666Z,5.73
2018-04-18T06:41:06.183Z,6.43
2018-04-18T06:43:34.586Z,6.20
2018-04-18T06:46:02.985Z,5.23
2018-04-18T06:48:31.378Z,5.00
2018-04-18T06:50:59.784Z,6.37
2018-04-18T06:53:28.227Z,5.73
2018-04-18T06:55:56.600Z,5.57
2018-04-18T06:58:24.983Z,5.77
2018-04-18T07:00:53.381Z,5.13
2018-04-18T07:03:21.763Z,4.23
2018-04-18T07:05:50.159Z,5.20
2018-04-18T07:08:18.560Z,4.90
2018-04-18T07:10:46.994Z,4.43
2018-04-18T07:13:15.495Z,3.97
2018-04-18T07:15:43.895Z,4.63
2018-04-18T07:18:12.263Z,4.83
2018-04-18T07:20:40.670Z,4.57
2018-04-18T07:23:09.121Z,5.00
2018-04-18T07:25:37.547Z,5.13
2018-04-18T07:28:05.930Z,4.70
2018-04-18T07:30:34.322Z,5.43
2018-04-18T07:33:02.703Z,4.70
2018-04-18T07:35:31.242Z,4.70
2018-04-18T07:37:59.635Z,4.97
2018-04-18T07:40:28.021Z,4.00
2018-04-18T07:42:56.422Z,4.00
2018-04-18T07:45:24.798Z,4.50
2018-04-18T07:47:53.244Z,3.90
2018-04-18T07:50:21.597Z,3.90
2018-04-18T07:52:50.002Z,4.70
2018-04-18T07:55:18.413Z,4.13
2018-04-18T07:57:47.776Z,3.93
2018-04-18T08:00:16.302Z,3.60
2018-04-18T08:02:44.908Z,4.00
2018-04-18T08:05:13.541Z,3.33
2018-04-18T08:07:42.244Z,3.20
2018-04-18T08:10:10.851Z,3.53
2018-04-18T08:12:39.407Z,3.60
2018-04-18T08:15:08.110Z,4.13
2018-04-18T08:17:36.853Z,3.57
2018-04-18T08:20:05.600Z,3.67
2018-04-18T08:22:34.098Z,3.70
2018-04-18T08:25:02.462Z,3.60
2018-04-18T08:27:30.827Z,3.20
2018-04-18T08:29:59.188Z,3.77
2018-04-18T08:32:27.879Z,3.07
2018-04-18T08:34:56.290Z,3.47
2018-04-18T08:37:24.647Z,3.33
2018-04-18T08:39:53.044Z,3.57
2018-04-18T08:42:21.684Z,4.00
2018-04-18T08:44:57.679Z,4.60
2018-04-18T08:47:27.676Z,3.60
2018-04-18T08:49:56.761Z,2.87
2018-04-18T08:52:25.218Z,2.97
2018-04-18T08:54:53.609Z,2.90
2018-04-18T08:57:22.005Z,3.30
2018-04-18T08:59:50.430Z,3.23
2018-04-18T09:02:18.792Z,3.20
2018-04-18T09:04:47.147Z,3.47
2018-04-18T09:07:15.557Z,3.83
2018-04-18T09:09:43.928Z,4.40
2018-04-18T09:12:14.285Z,3.53
2018-04-18T09:14:42.669Z,4.17
2018-04-18T09:17:11.056Z,3.80
2018-04-18T09:19:40.413Z,3.53
2018-04-18T09:22:09.647Z,3.63
2018-04-18T09:24:38.410Z,3.60
2018-04-18T09:27:06.819Z,3.70
2018-04-18T09:29:36.622Z,3.60
2018-04-18T09:32:05.021Z,3.97
2018-04-18T09:34:33.382Z,4.43
2018-04-18T09:37:01.734Z,3.93
2018-04-18T09:39:30.103Z,4.30
2018-04-18T09:41:58.518Z,3.33
2018-04-18T09:44:26.901Z,3.70
2018-04-18T09:46:55.267Z,3.90
2018-04-18T09:49:23.636Z,4.17
2018-04-18T09:51:52.031Z,4.33
2018-04-18T09:54:20.459Z,4.00
2018-04-18T09:56:48.809Z,3.70
2018-04-18T09:59:17.241Z,3.90
2018-04-18T10:01:47.709Z,4.13
2018-04-18T10:04:31.385Z,4.03
2018-04-18T10:06:59.741Z,4.00
2018-04-18T10:09:28.127Z,4.37
2018-04-18T10:11:56.528Z,3.43
2018-04-18T10:14:24.900Z,4.33
2018-04-18T10:16:53.273Z,4.60
2018-04-18T10:19:21.645Z,4.40
2018-04-18T10:21:50.001Z,3.60
2018-04-18T10:24:18.431Z,4.53
2018-04-18T10:26:46.983Z,4.00
2018-04-18T10:29:15.341Z,4.60
2018-04-18T10:31:43.717Z,7.83
2018-04-18T10:34:12.087Z,9.57
2018-04-18T10:36:40.489Z,4.83
2018-04-18T10:39:08.855Z,4.80
2018-04-18T10:41:37.220Z,4.40
2018-04-18T10:44:05.588Z,4.70
2018-04-18T10:46:34.043Z,5.57
2018-04-18T10:49:02.557Z,5.07
2018-04-18T10:51:31.277Z,5.07
2018-04-18T10:53:59.723Z,4.27
2018-04-18T10:56:28.216Z,5.50
2018-04-18T10:58:56.655Z,5.30
2018-04-18T11:01:25.070Z,5.50
2018-04-18T11:03:53.438Z,5.20
2018-04-18T11:06:21.810Z,5.50
2018-04-18T11:08:50.175Z,5.50
2018-04-18T11:11:18.566Z,5.00
2018-04-18T11:13:46.932Z,5.07
2018-04-18T11:16:15.318Z,4.10
2018-04-18T11:18:43.767Z,4.40
2018-04-18T11:21:12.099Z,4.27
2018-04-18T11:23:40.479Z,4.03
2018-04-18T11:26:08.840Z,3.43
2018-04-18T11:28:37.210Z,3.93
2018-04-18T11:31:05.808Z,3.50
2018-04-18T11:33:34.234Z,4.17
2018-04-18T11:36:02.628Z,3.90
2018-04-18T11:38:31.347Z,4.20
2018-04-18T11:40:59.852Z,3.80
2018-04-18T11:43:28.242Z,3.47
2018-04-18T11:45:56.711Z,3.40
2018-04-18T11:48:25.162Z,3.20
2018-04-18T11:50:53.600Z,3.90
2018-04-18T11:53:22.929Z,3.47
2018-04-18T11:55:51.310Z,3.40
2018-04-18T11:58:19.719Z,3.83
2018-04-18T12:00:48.118Z,3.87
2018-04-18T12:03:16.677Z,3.23
2018-04-18T12:05:45.069Z,3.10
2018-04-18T12:08:13.479Z,3.40
2018-04-18T12:10:41.858Z,3.47
2018-04-18T12:13:10.271Z,2.97
2018-04-18T12:15:38.717Z,3.37
2018-04-18T12:18:07.120Z,3.17
2018-04-18T12:20:35.522Z,2.70
2018-04-18T12:23:03.910Z,3.20
2018-04-18T12:25:32.323Z,3.00
2018-04-18T12:28:00.696Z,3.40
2018-04-18T12:30:31.982Z,3.27
2018-04-18T12:33:00.424Z,3.17
2018-04-18T12:35:28.803Z,3.73
2018-04-18T12:37:57.166Z,3.00
2018-04-18T12:40:25.812Z,3.10
2018-04-18T12:42:54.172Z,2.50
2018-04-18T12:45:22.618Z,3.07
2018-04-18T12:47:51.006Z,3.67
2018-04-18T12:50:19.383Z,3.93
2018-04-18T12:52:47.755Z,3.70
2018-04-18T12:55:16.123Z,3.00
2018-04-18T12:57:44.601Z,3.50
2018-04-18T13:00:13.136Z,3.23
2018-04-18T13:02:41.606Z,3.90
2018-04-18T13:05:09.975Z,3.30
2018-04-18T13:07:38.386Z,3.97
2018-04-18T13:10:06.783Z,2.83
2018-04-18T13:12:35.189Z,3.30
2018-04-18T13:15:03.621Z,3.43
2018-04-18T13:17:32.000Z,3.53
2018-04-18T13:20:00.392Z,3.40
2018-04-18T13:22:28.783Z,3.63
2018-04-18T13:24:57.296Z,3.00
2018-04-18T13:27:28.210Z,3.43
2018-04-18T13:29:56.750Z,3.03
2018-04-18T13:32:25.294Z,3.80
2018-04-18T13:34:54.201Z,4.00
2018-04-18T13:37:22.595Z,3.70
2018-04-18T13:39:51.115Z,3.03
2018-04-18T13:42:19.563Z,3.07
2018-04-18T13:44:47.978Z,3.10
2018-04-18T13:47:16.390Z,3.23
2018-04-18T13:49:44.761Z,3.57
2018-04-18T13:52:13.159Z,3.60
2018-04-18T13:54:41.553Z,3.60
2018-04-18T13:57:09.996Z,3.67
2018-04-18T13:59:38.478Z,3.50
2018-04-18T14:02:06.858Z,3.87
2018-04-18T14:04:35.242Z,3.57
2018-04-18T14:07:03.643Z,3.33
2018-04-18T14:09:32.115Z,3.20
2018-04-18T14:12:00.506Z,3.47
2018-04-18T14:14:28.903Z,3.70
2018-04-18T14:16:57.311Z,3.77
2018-04-18T14:19:25.811Z,3.33
2018-04-18T14:21:54.237Z,3.17
2018-04-18T14:24:22.699Z,3.20
2018-04-18T14:26:51.087Z,3.77
2018-04-18T14:29:19.554Z,3.67
2018-04-18T14:31:48.054Z,3.47
2018-04-18T14:34:16.436Z,3.50
2018-04-18T14:36:44.829Z,3.13
2018-04-18T14:39:13.676Z,3.50
2018-04-18T14:41:42.046Z,3.73
2018-04-18T14:44:10.456Z,3.90
2018-04-18T14:46:38.850Z,2.90
2018-04-18T14:49:07.230Z,3.83
2018-04-18T14:51:35.598Z,3.23
2018-04-18T14:54:04.099Z,3.00
2018-04-18T14:56:32.467Z,3.43
2018-04-18T14:59:00.824Z,3.37
2018-04-18T15:01:29.178Z,2.63
2018-04-18T15:03:57.545Z,3.00
2018-04-18T15:06:25.915Z,4.00
2018-04-18T15:08:54.278Z,3.13
2018-04-18T15:11:22.730Z,3.80
2018-04-18T15:13:51.099Z,3.20
2018-04-18T15:16:19.496Z,3.23
2018-04-18T15:18:47.855Z,3.30
2018-04-18T15:21:16.973Z,3.20
2018-04-18T15:23:45.585Z,3.40
2018-04-18T15:26:14.176Z,3.40
2018-04-18T15:28:44.614Z,3.20
2018-04-18T15:31:14.025Z,3.23
2018-04-18T15:33:42.528Z,3.07
2018-04-18T15:36:10.909Z,3.40
2018-04-18T15:38:39.305Z,3.00
2018-04-18T15:41:07.734Z,3.10
2018-04-18T15:46:21.383Z,3.70
2018-04-18T15:48:49.749Z,3.77
2018-04-18T15:51:18.134Z,2.87
2018-04-18T15:53:46.508Z,3.20
2018-04-18T15:56:14.950Z,3.27
2018-04-18T15:58:43.299Z,3.23
2018-04-18T16:01:11.728Z,3.63
2018-04-18T16:03:40.096Z,3.53
2018-04-18T16:06:08.537Z,2.90
2018-04-18T16:08:36.904Z,3.10
2018-04-18T16:11:05.330Z,3.23
2018-04-18T16:13:33.719Z,3.10
2018-04-18T16:16:02.073Z,2.87
2018-04-18T16:18:30.472Z,3.60
2018-04-18T16:20:58.881Z,3.40
2018-04-18T16:23:27.285Z,3.57
2018-04-18T16:25:55.660Z,3.47
2018-04-18T16:28:24.018Z,3.50
2018-04-18T16:30:52.459Z,3.70
2018-04-18T16:33:20.825Z,3.00
2018-04-18T16:35:49.230Z,3.10
2018-04-18T16:38:17.627Z,2.80
2018-04-18T16:40:45.998Z,3.00
2018-04-18T16:43:14.403Z,3.20
2018-04-18T16:45:42.785Z,2.83
2018-04-18T16:48:11.178Z,3.30
2018-04-18T16:50:39.566Z,3.37
2018-04-18T16:53:07.973Z,2.30
2018-04-18T16:55:36.359Z,3.30
2018-04-18T16:58:04.721Z,3.17
2018-04-18T17:00:33.090Z,3.20
2018-04-18T17:03:01.495Z,2.70
2018-04-18T17:05:29.895Z,3.23
2018-04-18T17:07:58.261Z,3.20
2018-04-18T17:10:26.710Z,3.40
2018-04-18T17:12:55.077Z,3.53
2018-04-18T17:15:23.450Z,3.60
2018-04-18T17:17:52.026Z,3.20
2018-04-18T17:20:21.032Z,3.67
2018-04-18T17:22:51.551Z,3.73
2018-04-18T17:25:19.949Z,3.43
2018-04-18T17:27:48.420Z,3.80
2018-04-18T17:30:16.799Z,3.07
2018-04-18T17:32:45.268Z,3.10
2018-04-18T17:35:13.665Z,3.60
2018-04-18T17:37:42.092Z,3.53
2018-04-18T17:40:10.471Z,3.27
2018-04-18T17:42:38.894Z,4.40
2018-04-18T17:45:07.361Z,3.97
2018-04-18T17:47:35.756Z,4.40
2018-04-18T17:50:04.157Z,3.30
2018-04-18T17:52:32.565Z,3.87
2018-04-18T17:55:01.011Z,3.40
2018-04-18T17:57:29.443Z,3.37
2018-04-18T17:59:57.838Z,3.53
2018-04-18T18:02:26.240Z,3.57
2018-04-18T18:04:54.650Z,3.80
2018-04-18T18:07:23.927Z,3.93
2018-04-18T18:10:06.833Z,3.93
2018-04-18T18:12:35.234Z,4.33
2018-04-18T18:15:03.698Z,3.30
2018-04-18T18:17:32.458Z,3.83
2018-04-18T18:20:01.597Z,3.57
2018-04-18T18:22:30.035Z,3.90
2018-04-18T18:24:58.450Z,4.20
2018-04-18T18:27:26.963Z,4.60
2018-04-18T18:29:55.383Z,4.30
2018-04-18T18:32:23.857Z,4.60
2018-04-18T18:34:52.266Z,4.30
2018-04-18T18:37:20.752Z,4.13
2018-04-18T18:39:49.210Z,4.23
2018-04-18T18:42:17.602Z,4.43
2018-04-18T18:44:46.049Z,5.20
2018-04-18T18:47:14.476Z,4.50
2018-04-18T18:49:42.955Z,4.47
2018-04-18T18:52:11.322Z,3.73
2018-04-18T18:54:39.733Z,4.07
2018-04-18T18:57:08.212Z,3.03
2018-04-18T18:59:36.596Z,3.97
2018-04-18T19:02:05.027Z,3.90
2018-04-18T19:04:33.401Z,3.80
2018-04-18T19:07:01.778Z,4.20
2018-04-18T19:09:30.185Z,4.10
2018-04-18T19:11:58.560Z,3.93
2018-04-18T19:14:27.133Z,4.60
2018-04-18T19:16:55.632Z,4.13
2018-04-18T19:19:24.034Z,4.60
2018-04-18T19:21:52.410Z,4.03
2018-04-18T19:24:20.808Z,5.27
2018-04-18T19:26:49.214Z,8.57
2018-04-18T19:29:17.656Z,4.20
2018-04-18T19:31:46.047Z,4.50
2018-04-18T19:34:14.454Z,4.77
2018-04-18T19:36:42.865Z,5.00
2018-04-18T19:39:11.533Z,4.47
2018-04-18T19:41:40.282Z,4.80
2018-04-18T19:44:08.759Z,4.57
2018-04-18T19:46:37.278Z,4.93
2018-04-18T19:49:05.758Z,5.10
2018-04-18T19:51:34.593Z,4.43
2018-04-18T19:54:02.997Z,4.73
2018-04-18T19:56:31.469Z,4.90
2018-04-18T19:58:59.967Z,4.57
2018-04-18T20:01:28.372Z,4.20
2018-04-18T20:03:56.802Z,4.87
2018-04-18T20:06:25.196Z,4.40
2018-04-18T20:08:53.629Z,4.43
2018-04-18T20:11:22.043Z,4.20
2018-04-18T20:13:50.445Z,4.10
2018-04-18T20:16:18.851Z,4.80
2018-04-18T20:18:47.255Z,15.70
2018-04-18T20:21:15.753Z,5.83
2018-04-18T20:23:44.254Z,10.60
2018-04-18T20:26:12.738Z,5.03
2018-04-18T20:28:41.329Z,4.50
2018-04-18T20:31:09.721Z,4.80
2018-04-18T20:33:38.289Z,4.80
2018-04-18T20:36:07.216Z,5.23
2018-04-18T20:38:36.520Z,5.97
2018-04-18T20:41:04.930Z,6.07
2018-04-18T20:43:33.530Z,5.50
2018-04-18T20:46:02.194Z,4.63
2018-04-18T20:48:30.601Z,5.77
2018-04-18T20:50:59.078Z,5.20
2018-04-18T20:53:27.569Z,5.37
2018-04-18T20:55:55.972Z,4.70
2018-04-18T20:58:24.504Z,4.80
2018-04-18T21:00:53.028Z,5.43
2018-04-18T21:03:21.434Z,4.80
2018-04-18T21:05:49.956Z,4.83
2018-04-18T21:08:18.312Z,5.50
2018-04-18T21:10:46.726Z,5.00
2018-04-18T21:13:15.085Z,5.60
2018-04-18T21:15:43.531Z,5.00
2018-04-18T21:18:11.990Z,5.03
2018-04-18T21:20:40.435Z,5.20
2018-04-18T21:23:08.890Z,6.33
2018-04-18T21:25:37.286Z,5.53
2018-04-18T21:28:05.721Z,5.70
2018-04-18T21:30:34.077Z,5.90
2018-04-18T21:33:02.446Z,5.60
2018-04-18T21:35:30.832Z,5.20
2018-04-18T21:37:59.214Z,5.50
2018-04-18T21:40:27.631Z,5.20
2018-04-18T21:42:55.987Z,5.83
2018-04-18T21:45:24.355Z,5.07
2018-04-18T21:47:53.422Z,4.80
2018-04-18T21:50:21.789Z,5.23
2018-04-18T21:52:50.245Z,5.13
2018-04-18T21:55:18.631Z,5.47
2018-04-18T21:57:47.180Z,5.50
2018-04-18T22:00:15.543Z,5.03
2018-04-18T22:02:43.922Z,5.60
2018-04-18T22:05:12.394Z,6.20
2018-04-18T22:07:40.791Z,6.03
2018-04-18T22:10:09.172Z,6.07
2018-04-18T22:12:37.552Z,5.20
2018-04-18T22:15:05.920Z,6.13
2018-04-18T22:17:34.411Z,6.10
2018-04-18T22:20:02.854Z,5.83
2018-04-18T22:22:31.235Z,6.10
2018-04-18T22:24:59.614Z,5.93
2018-04-18T22:27:27.970Z,6.00
2018-04-18T22:29:56.410Z,5.67
2018-04-18T22:32:24.819Z,5.80
2018-04-18T22:34:53.220Z,6.43
2018-04-18T22:37:21.608Z,6.30
2018-04-18T22:39:50.004Z,5.70
2018-04-18T22:42:18.422Z,6.27
2018-04-18T22:44:46.794Z,6.37
2018-04-18T22:47:15.249Z,6.60
2018-04-18T22:49:43.641Z,7.20
2018-04-18T22:52:12.021Z,6.43
2018-04-18T22:54:40.405Z,6.77
2018-04-18T22:57:08.798Z,6.40
2018-04-18T22:59:37.154Z,6.70
2018-04-18T23:02:05.547Z,6.50
2018-04-18T23:04:34.003Z,7.20
2018-04-18T23:07:02.416Z,6.10
2018-04-18T23:09:30.839Z,7.20
2018-04-18T23:11:59.234Z,6.70
2018-04-18T23:14:27.727Z,7.23
2018-04-18T23:16:56.207Z,6.90
2018-04-18T23:19:24.593Z,8.30
2018-04-18T23:21:52.993Z,6.80
2018-04-18T23:24:21.371Z,6.63
2018-04-18T23:26:49.797Z,6.90
2018-04-18T23:29:18.207Z,7.67
2018-04-18T23:31:46.626Z,6.87
2018-04-18T23:34:15.067Z,7.13
2018-04-18T23:36:43.413Z,7.53
2018-04-18T23:39:11.780Z,7.17
2018-04-18T23:41:40.146Z,7.33
2018-04-18T23:44:08.561Z,6.77
2018-04-18T23:46:36.914Z,7.07
2018-04-18T23:49:05.334Z,7.60
2018-04-18T23:51:33.706Z,7.90
2018-04-18T23:54:02.089Z,6.87
2018-04-18T23:56:30.448Z,6.97
2018-04-18T23:58:58.801Z,6.67
